Time;durP1;ratioP1;P1;durP2;ratioP2;P2;SDS_P1;SDS_P2;PMS_P1;PMS_P2;Temp;Humidity;BMP_temperature;BMP_pressure;BME280_temperature;BME280_humidity;BME280_pressure;Samples;Min_cycle;Max_cycle;Signal;HPM_P1;HPM_P2
2021/11/27 00:00:26;;;;;;;24.85;8.75;;;;;;;15.75;64.23;100240.84;1734423;81;22082;-56
2021/11/27 00:02:57;;;;;;;21.00;8.23;;;;;;;15.76;64.20;100239.07;1702177;84;21069;-61
2021/11/27 00:05:24;;;;;;;22.35;8.25;;;;;;;15.77;64.04;100240.30;1699588;83;21058;-61
2021/11/27 00:07:51;;;;;;;26.00;8.45;;;;;;;15.79;63.93;100243.69;1699879;84;21030;-57
2021/11/27 00:10:22;;;;;;;23.73;9.18;;;;;;;15.80;63.81;100241.47;1700858;84;20998;-60
2021/11/27 00:29:36;;;;;;;27.98;8.13;;;;;;;15.88;63.16;100231.42;1740191;81;21519;-60
2021/11/27 00:32:04;;;;;;;16.90;7.60;;;;;;;15.87;63.24;100211.34;1735312;81;20983;-60
2021/11/27 00:34:30;;;;;;;29.87;8.95;;;;;;;15.89;63.22;100216.05;1735490;82;21522;-65
2021/11/27 00:36:57;;;;;;;27.30;8.78;;;;;;;15.91;63.23;100202.38;1731660;81;21054;-57
2021/11/27 00:39:23;;;;;;;31.42;8.68;;;;;;;15.91;63.28;100198.45;1727903;81;21034;-66
2021/11/27 00:41:50;;;;;;;26.82;7.40;;;;;;;15.91;63.31;100201.08;1732121;82;21494;-58
2021/11/27 00:44:17;;;;;;;33.10;9.13;;;;;;;15.92;63.34;100204.55;1736143;81;21436;-59
2021/11/27 00:46:44;;;;;;;30.05;9.70;;;;;;;15.92;63.42;100197.99;1734427;81;20968;-60
2021/11/27 00:49:12;;;;;;;20.95;7.80;;;;;;;15.92;63.55;100192.74;1731926;81;20987;-56
2021/11/27 00:51:39;;;;;;;28.07;8.73;;;;;;;15.94;63.55;100189.13;1732270;81;20987;-57
2021/11/27 00:54:05;;;;;;;32.08;9.70;;;;;;;15.96;63.63;100192.97;1731892;81;21010;-60
2021/11/27 00:56:32;;;;;;;33.08;9.53;;;;;;;15.96;63.69;100178.08;1731966;81;21046;-55
2021/11/27 00:59:00;;;;;;;18.02;7.78;;;;;;;15.97;63.76;100169.26;1732341;81;20983;-59
2021/11/27 01:01:30;;;;;;;26.07;9.73;;;;;;;15.99;63.78;100179.21;1751598;81;21023;-57
2021/11/27 01:03:57;;;;;;;24.30;8.35;;;;;;;16.01;63.82;100169.97;1732846;81;20978;-56
2021/11/27 01:06:25;;;;;;;31.57;9.85;;;;;;;16.01;63.85;100164.23;1734544;82;20979;-60
2021/11/27 01:08:54;;;;;;;25.65;8.95;;;;;;;16.01;63.94;100158.98;1735515;81;21048;-56
2021/11/27 01:11:37;;;;;;;24.75;9.03;;;;;;;16.03;64.02;100153.19;1725942;81;21069;-57
2021/11/27 01:14:11;;;;;;;24.07;8.58;;;;;;;16.04;64.04;100149.65;1695793;83;21029;-62
2021/11/27 01:16:42;;;;;;;20.32;8.65;;;;;;;16.04;64.15;100149.65;1697680;83;21010;-56
2021/11/27 01:19:10;;;;;;;26.50;9.10;;;;;;;16.05;64.26;100146.08;1697479;83;21034;-56
2021/11/27 01:21:42;;;;;;;30.15;9.85;;;;;;;16.08;64.32;100144.62;1698957;83;21038;-60
2021/11/27 01:24:12;;;;;;;26.35;9.85;;;;;;;16.10;64.38;100144.53;1745926;81;21030;-60
2021/11/27 01:26:40;;;;;;;38.48;11.65;;;;;;;16.11;64.49;100143.61;1739758;81;21043;-56
2021/11/27 01:29:07;;;;;;;26.57;9.40;;;;;;;16.12;64.56;100147.45;1734123;82;21011;-57
2021/11/27 01:31:35;;;;;;;30.15;10.10;;;;;;;16.14;64.61;100137.73;1731887;81;21567;-58
2021/11/27 01:34:04;;;;;;;31.30;10.58;;;;;;;16.15;64.63;100139.44;1733088;81;21034;-57
2021/11/27 01:36:31;;;;;;;29.75;11.10;;;;;;;16.17;64.69;100140.20;1731632;81;21003;-57
2021/11/27 01:38:58;;;;;;;26.42;9.78;;;;;;;16.18;64.71;100131.38;1731616;81;21071;-57
2021/11/27 01:41:25;;;;;;;29.77;10.30;;;;;;;16.20;64.64;100134.77;1731959;81;20991;-58
2021/11/27 01:43:52;;;;;;;29.45;10.58;;;;;;;16.22;64.61;100130.28;1728333;81;21058;-61
2021/11/27 01:46:18;;;;;;;34.63;10.95;;;;;;;16.23;64.55;100133.76;1734014;81;21050;-56
2021/11/27 01:48:46;;;;;;;28.02;10.50;;;;;;;16.25;64.57;100128.81;1732325;81;21030;-56
2021/11/27 01:51:18;;;;;;;30.30;11.57;;;;;;;16.28;64.51;100136.50;1731715;81;21542;-57
2021/11/27 01:53:52;;;;;;;35.65;12.60;;;;;;;16.30;64.46;100134.64;1733635;82;21595;-57
2021/11/27 01:56:26;;;;;;;31.45;11.63;;;;;;;16.31;64.41;100138.13;1687012;83;21026;-63
2021/11/27 01:58:53;;;;;;;25.95;10.35;;;;;;;16.32;64.41;100146.39;1688446;83;21610;-56
2021/11/27 02:01:23;;;;;;;27.37;10.53;;;;;;;16.34;64.36;100146.30;1681324;83;21051;-57
2021/11/27 02:03:50;;;;;;;29.10;11.53;;;;;;;16.33;64.40;100145.91;1682426;83;21129;-61
2021/11/27 02:06:25;;;;;;;32.28;11.43;;;;;;;16.35;64.33;100147.98;1685430;83;21070;-59
2021/11/27 02:08:53;;;;;;;26.50;10.78;;;;;;;16.35;64.36;100142.73;1684113;85;21034;-58
2021/11/27 02:11:27;;;;;;;31.97;11.38;;;;;;;16.36;64.42;100147.92;1669432;85;20982;-56
2021/11/27 02:13:55;;;;;;;29.55;11.45;;;;;;;16.37;64.31;100144.34;1683553;83;21010;-64
2021/11/27 02:16:23;;;;;;;37.70;12.18;;;;;;;16.39;64.27;100141.63;1682152;83;21050;-63
2021/11/27 02:18:50;;;;;;;33.83;11.25;;;;;;;16.40;64.06;100136.77;1680762;82;21535;-57
2021/11/27 02:21:21;;;;;;;31.15;11.70;;;;;;;16.40;64.07;100140.71;1680574;83;21491;-59
2021/11/27 02:23:48;;;;;;;34.78;11.73;;;;;;;16.39;64.09;100135.92;1680547;83;21034;-56
2021/11/27 02:26:17;;;;;;;30.00;11.12;;;;;;;16.40;63.97;100142.88;1680639;83;21054;-56
2021/11/27 02:28:50;;;;;;;27.73;11.63;;;;;;;16.41;63.92;100145.02;1680968;83;21034;-59
2021/11/27 02:31:17;;;;;;;31.05;12.10;;;;;;;16.40;63.90;100138.09;1689263;83;21078;-56
2021/11/27 02:33:45;;;;;;;39.42;13.83;;;;;;;16.40;63.68;100141.56;1683423;83;21094;-59
2021/11/27 02:36:12;;;;;;;33.42;12.93;;;;;;;16.40;63.77;100134.15;1679674;85;21550;-63
2021/11/27 02:38:39;;;;;;;32.15;12.43;;;;;;;16.40;63.64;100135.46;1683682;83;21034;-56
2021/11/27 02:41:06;;;;;;;28.00;11.70;;;;;;;16.39;63.70;100133.75;1682843;83;20998;-62
2021/11/27 02:43:32;;;;;;;41.50;12.70;;;;;;;16.37;63.47;100136.92;1680890;83;21542;-59
2021/11/27 02:45:59;;;;;;;36.77;13.50;;;;;;;16.35;63.44;100138.33;1680492;83;21046;-60
2021/11/27 02:48:26;;;;;;;32.28;11.70;;;;;;;16.34;63.43;100134.48;1681161;83;20990;-60
2021/11/27 02:50:53;;;;;;;29.85;12.82;;;;;;;16.31;63.39;100134.18;1680382;83;21007;-56
2021/11/27 02:53:20;;;;;;;33.63;12.85;;;;;;;16.28;63.49;100127.31;1711962;81;21094;-59
2021/11/27 02:55:48;;;;;;;35.48;14.43;;;;;;;16.26;63.45;100124.38;1733687;80;20998;-60
2021/11/27 02:58:15;;;;;;;32.25;11.80;;;;;;;16.25;63.44;100114.38;1739676;81;21038;-57
2021/11/27 03:00:42;;;;;;;32.08;11.53;;;;;;;16.25;63.38;100124.87;1736350;81;21495;-60
2021/11/27 03:03:09;;;;;;;25.00;11.20;;;;;;;16.25;63.29;100132.75;1737429;82;21479;-63
2021/11/27 03:05:37;;;;;;;23.57;10.13;;;;;;;16.24;63.16;100125.79;1736068;81;21031;-57
2021/11/27 03:08:06;;;;;;;26.30;10.28;;;;;;;16.21;63.13;100129.91;1733711;81;21335;-59
2021/11/27 03:10:33;;;;;;;20.17;10.10;;;;;;;16.20;63.19;100129.52;1732111;81;20995;-64
2021/11/27 03:13:01;;;;;;;27.17;11.63;;;;;;;16.19;63.30;100125.21;1732087;81;21035;-57
2021/11/27 03:15:28;;;;;;;26.80;10.25;;;;;;;16.18;63.30;100120.88;1732353;81;21587;-56
2021/11/27 03:17:57;;;;;;;27.25;11.08;;;;;;;16.16;63.36;100110.08;1722864;81;21035;-62
2021/11/27 03:20:24;;;;;;;23.40;11.30;;;;;;;16.15;63.47;100114.50;1734872;81;21094;-57
2021/11/27 03:22:51;;;;;;;25.40;11.20;;;;;;;16.17;63.53;100117.03;1733146;81;20960;-57
2021/11/27 03:25:17;;;;;;;27.90;9.88;;;;;;;16.18;63.60;100117.40;1729060;81;21062;-60
2021/11/27 03:27:46;;;;;;;29.57;10.98;;;;;;;16.19;63.59;100111.23;1730165;81;21058;-60
2021/11/27 03:30:16;;;;;;;26.17;10.75;;;;;;;16.19;63.58;100104.21;1731903;81;20971;-57
2021/11/27 03:32:45;;;;;;;26.30;10.72;;;;;;;16.19;63.53;100103.36;1731706;81;20975;-56
2021/11/27 03:35:14;;;;;;;28.50;11.85;;;;;;;16.17;63.65;100102.14;1727434;81;21023;-57
2021/11/27 03:37:43;;;;;;;28.02;11.85;;;;;;;16.17;63.71;100099.52;1734873;81;21559;-62
2021/11/27 03:40:12;;;;;;;28.23;11.88;;;;;;;16.17;63.64;100104.77;1734356;81;20975;-56
2021/11/27 03:42:39;;;;;;;29.23;11.40;;;;;;;16.18;63.57;100099.88;1740011;81;21003;-57
2021/11/27 03:45:09;;;;;;;30.85;12.23;;;;;;;16.20;63.43;100112.45;1733598;82;21527;-60
2021/11/27 03:47:36;;;;;;;24.60;10.55;;;;;;;16.21;63.36;100115.93;1724381;82;21002;-59
2021/11/27 03:50:04;;;;;;;30.05;11.93;;;;;;;16.22;63.23;100117.61;1732642;81;21003;-60
2021/11/27 03:52:31;;;;;;;30.15;10.35;;;;;;;16.22;63.14;100118.47;1732250;81;20972;-57
2021/11/27 03:54:58;;;;;;;26.33;11.00;;;;;;;16.22;63.01;100118.47;1722992;82;21035;-57
2021/11/27 03:57:25;;;;;;;27.93;11.38;;;;;;;16.23;62.91;100120.63;1733844;81;21038;-61
2021/11/27 03:59:51;;;;;;;20.97;10.28;;;;;;;16.21;62.91;100133.85;1733523;81;21434;-62
2021/11/27 04:02:18;;;;;;;21.33;10.23;;;;;;;16.21;62.87;100125.97;1732437;81;21042;-60
2021/11/27 04:04:46;;;;;;;27.48;11.08;;;;;;;16.20;62.78;100129.52;1731931;81;21026;-57
2021/11/27 04:07:13;;;;;;;25.40;11.08;;;;;;;16.20;62.75;100133.91;1731607;81;21011;-56
2021/11/27 04:09:43;;;;;;;29.02;11.48;;;;;;;16.18;62.63;100144.50;1732046;81;21027;-59
2021/11/27 04:12:12;;;;;;;28.38;11.65;;;;;;;16.17;62.60;100136.27;1733995;81;21043;-60
2021/11/27 04:14:42;;;;;;;33.67;14.18;;;;;;;16.16;62.54;100135.86;1732538;81;21484;-57
2021/11/27 04:17:09;;;;;;;58.92;18.10;;;;;;;16.15;62.49;100139.44;1734652;81;21050;-60
2021/11/27 04:19:35;;;;;;;59.63;17.00;;;;;;;16.12;62.45;100140.90;1738858;81;20982;-58
2021/11/27 04:22:04;;;;;;;54.80;15.30;;;;;;;16.12;62.36;100140.05;1733654;81;21011;-61
2021/11/27 04:24:31;;;;;;;44.80;14.13;;;;;;;16.09;62.36;100150.23;1731926;82;21507;-57
2021/11/27 04:26:59;;;;;;;41.70;15.50;;;;;;;16.07;62.35;100152.09;1738108;81;21035;-64
2021/11/27 04:29:26;;;;;;;46.35;15.83;;;;;;;16.05;62.29;100150.02;1731593;81;21042;-64
2021/11/27 04:31:52;;;;;;;40.98;14.20;;;;;;;16.04;62.29;100145.72;1731737;81;20995;-56
2021/11/27 04:34:21;;;;;;;40.63;14.75;;;;;;;16.03;62.17;100150.56;1731436;81;21563;-56
2021/11/27 04:36:48;;;;;;;36.53;13.78;;;;;;;16.00;62.05;100152.06;1730838;81;21534;-56
2021/11/27 04:39:15;;;;;;;39.33;13.93;;;;;;;16.00;62.07;100161.24;1730724;81;21003;-61
2021/11/27 04:41:42;;;;;;;43.20;13.93;;;;;;;15.99;62.00;100160.02;1733181;81;21034;-60
2021/11/27 04:44:09;;;;;;;43.50;13.72;;;;;;;15.98;61.94;100163.09;1737795;81;21511;-58
2021/11/27 04:46:35;;;;;;;51.42;16.20;;;;;;;15.97;61.93;100160.56;1732550;81;21015;-59
2021/11/27 04:49:02;;;;;;;50.67;17.25;;;;;;;15.95;61.83;100155.86;1733362;82;21010;-56
2021/11/27 04:51:30;;;;;;;57.75;19.02;;;;;;;15.93;61.81;100149.85;1735259;81;21096;-57
2021/11/27 04:53:57;;;;;;;60.90;18.62;;;;;;;15.91;61.81;100151.22;1734727;81;21102;-57
2021/11/27 04:56:24;;;;;;;59.80;17.25;;;;;;;15.89;62.05;100159.64;1722837;81;20995;-60
2021/11/27 04:58:52;;;;;;;44.05;15.95;;;;;;;15.89;61.92;100173.25;1722022;82;21051;-60
2021/11/27 05:01:22;;;;;;;42.10;15.75;;;;;;;15.86;61.92;100174.25;1735190;81;21039;-57
2021/11/27 05:03:57;;;;;;;35.40;13.78;;;;;;;15.85;62.07;100177.78;1733789;81;21078;-56
2021/11/27 05:06:24;;;;;;;37.88;13.72;;;;;;;15.84;62.07;100187.91;1733435;81;20979;-62
2021/11/27 05:08:51;;;;;;;34.23;13.48;;;;;;;15.83;62.07;100191.91;1731337;82;21042;-60
2021/11/27 05:11:19;;;;;;;28.95;12.47;;;;;;;15.82;62.21;100190.22;1734085;81;21015;-56
2021/11/27 05:13:46;;;;;;;30.72;13.00;;;;;;;15.81;62.26;100191.13;1734394;81;21054;-57
2021/11/27 05:16:13;;;;;;;40.52;13.93;;;;;;;15.80;62.27;100190.77;1732457;81;20987;-56
2021/11/27 05:18:43;;;;;;;34.30;13.32;;;;;;;15.79;62.25;100188.59;1723112;82;20999;-56
2021/11/27 05:21:17;;;;;;;31.30;12.70;;;;;;;15.77;62.33;100193.08;1707363;82;21057;-57
2021/11/27 05:23:46;;;;;;;33.40;12.37;;;;;;;15.76;62.51;100195.79;1700359;82;21039;-58
2021/11/27 05:26:20;;;;;;;20.65;10.60;;;;;;;15.74;62.53;100193.25;1687620;84;21494;-62
2021/11/27 05:28:58;;;;;;;24.65;10.48;;;;;;;15.74;62.74;100184.53;1617035;88;21020;-55
2021/11/27 05:38:19;;;;;;;29.12;12.47;;;;;;;15.73;63.01;100200.72;1625491;87;21570;-57
2021/11/27 05:40:46;;;;;;;30.55;11.85;;;;;;;15.73;63.04;100200.72;1616319;87;21087;-58
2021/11/27 05:43:14;;;;;;;29.50;12.40;;;;;;;15.73;63.03;100206.42;1628525;87;21048;-64
2021/11/27 05:45:41;;;;;;;39.00;13.83;;;;;;;15.72;63.01;100205.59;1617241;87;21067;-58
2021/11/27 05:48:08;;;;;;;31.48;12.93;;;;;;;15.72;62.99;100213.47;1628440;87;21635;-57
2021/11/27 05:50:36;;;;;;;28.45;13.20;;;;;;;15.73;63.10;100211.67;1569174;91;21131;-62
2021/11/27 05:53:05;;;;;;;30.95;11.95;;;;;;;15.74;63.04;100219.48;1569180;91;21658;-56
2021/11/27 05:55:32;;;;;;;25.55;11.83;;;;;;;15.74;63.11;100218.62;1569281;91;21074;-60
2021/11/27 05:57:59;;;;;;;32.67;12.23;;;;;;;15.74;63.19;100224.73;1564858;91;21037;-63
2021/11/27 06:00:25;;;;;;;25.72;11.50;;;;;;;15.76;63.23;100230.75;1554917;92;22354;-56
2021/11/27 06:02:53;;;;;;;29.42;12.03;;;;;;;15.78;63.29;100238.53;1554961;92;21102;-60
2021/11/27 06:05:19;;;;;;;25.68;12.05;;;;;;;15.80;63.27;100249.34;1569788;89;21119;-58
2021/11/27 06:07:46;;;;;;;30.57;12.37;;;;;;;15.84;63.29;100252.19;1602398;89;21067;-57
2021/11/27 06:10:12;;;;;;;27.82;12.03;;;;;;;15.87;63.30;100250.70;1605182;89;21602;-58
2021/11/27 06:12:39;;;;;;;24.70;11.15;;;;;;;15.91;63.25;100251.41;1604661;89;21114;-57
2021/11/27 06:15:07;;;;;;;27.93;11.95;;;;;;;15.96;63.25;100255.94;1604602;89;21109;-57
2021/11/27 06:17:35;;;;;;;37.95;11.55;;;;;;;16.01;63.16;100257.88;1604420;89;21047;-60
2021/11/27 06:20:02;;;;;;;26.05;11.80;;;;;;;16.06;63.00;100253.23;1604635;89;21562;-63
2021/11/27 06:22:29;;;;;;;31.52;12.37;;;;;;;16.08;62.87;100262.72;1624938;86;21059;-62
2021/11/27 06:24:56;;;;;;;27.30;11.40;;;;;;;16.09;62.83;100260.47;1674273;86;21103;-63
2021/11/27 06:27:22;;;;;;;23.50;9.95;;;;;;;16.10;62.77;100251.68;1683709;83;21475;-62
2021/11/27 06:32:22;;;;;;;32.13;11.48;;;;;;;16.12;62.68;100248.52;1671602;85;21063;-59
2021/11/27 06:34:46;;;;;;;25.68;11.05;;;;;;;16.14;62.63;100247.97;1667304;85;21025;-63
2021/11/27 06:37:13;;;;;;;29.10;13.15;;;;;;;16.16;62.63;100242.62;1670344;84;21050;-65
2021/11/27 06:39:39;;;;;;;27.48;11.60;;;;;;;16.17;62.59;100245.20;1642470;87;21559;-58
2021/11/27 06:42:07;;;;;;;26.55;12.10;;;;;;;16.20;62.50;100255.52;1639638;87;21134;-62
2021/11/27 06:44:37;;;;;;;26.65;12.35;;;;;;;16.23;62.54;100257.14;1593695;89;21058;-59
2021/11/27 06:47:04;;;;;;;27.77;10.65;;;;;;;16.26;62.41;100260.90;1593393;89;21086;-65
2021/11/27 06:49:31;;;;;;;36.45;12.80;;;;;;;16.29;62.27;100269.94;1593660;89;21133;-62
2021/11/27 06:51:58;;;;;;;22.30;11.20;;;;;;;16.29;62.14;100257.67;1593627;89;21112;-61
2021/11/27 06:54:25;;;;;;;18.20;11.12;;;;;;;16.29;62.10;100260.30;1594558;89;21103;-60
2021/11/27 06:56:52;;;;;;;21.85;10.43;;;;;;;16.27;62.00;100247.72;1595349;89;21080;-59
2021/11/27 06:59:19;;;;;;;24.65;10.48;;;;;;;16.27;62.08;100248.17;1588353;89;21021;-64
2021/11/27 07:01:54;;;;;;;19.73;10.80;;;;;;;16.26;62.05;100244.69;1594222;89;21064;-61
2021/11/27 07:04:40;;;;;;;19.42;9.95;;;;;;;16.25;61.99;100244.33;1594293;89;21068;-66
2021/11/27 07:07:26;;;;;;;25.68;10.75;;;;;;;16.26;61.85;100243.38;1590326;89;21074;-61
2021/11/27 07:09:54;;;;;;;16.82;9.70;;;;;;;16.27;61.76;100246.41;1592217;89;21100;-62
2021/11/27 07:12:23;;;;;;;18.85;9.70;;;;;;;16.29;61.61;100244.55;1595176;89;21037;-64
2021/11/27 07:14:49;;;;;;;27.35;11.08;;;;;;;16.33;61.61;100249.61;1595853;89;21034;-60
2021/11/27 07:17:16;;;;;;;19.37;10.05;;;;;;;16.36;61.54;100245.53;1595601;89;21561;-66
2021/11/27 07:19:42;;;;;;;21.42;10.58;;;;;;;16.38;61.35;100252.86;1594662;89;21094;-64
2021/11/27 07:22:09;;;;;;;22.95;10.78;;;;;;;16.40;61.30;100261.50;1593867;89;21098;-60
2021/11/27 07:24:36;;;;;;;30.12;13.08;;;;;;;16.42;61.33;100260.95;1589703;89;21088;-65
2021/11/27 07:29:32;;;;;;;19.57;11.38;;;;;;;16.47;61.24;100265.48;1604798;87;21125;-59
2021/11/27 07:31:59;;;;;;;22.30;10.75;;;;;;;16.49;61.04;100265.82;1617583;87;21073;-66
2021/11/27 07:34:25;;;;;;;24.05;10.23;;;;;;;16.52;60.93;100263.50;1613628;87;21561;-61
2021/11/27 07:36:52;;;;;;;26.40;11.55;;;;;;;16.52;60.66;100260.87;1613572;88;21041;-60
2021/11/27 07:39:18;;;;;;;23.42;10.18;;;;;;;16.53;60.65;100263.87;1614592;87;21023;-63
2021/11/27 07:41:47;;;;;;;25.62;10.88;;;;;;;16.54;60.67;100273.46;1643625;86;21094;-61
2021/11/27 07:44:18;;;;;;;26.25;9.93;;;;;;;16.56;60.47;100283.42;1599138;88;21062;-60
2021/11/27 07:46:52;;;;;;;19.52;9.35;;;;;;;16.51;60.43;100274.92;1664708;85;21042;-57
2021/11/27 07:49:34;;;;;;;19.62;9.48;;;;;;;16.49;60.56;100275.44;1661084;85;21099;-60
2021/11/27 07:52:21;;;;;;;18.90;9.20;;;;;;;16.54;60.48;100281.34;1656997;85;21062;-57
2021/11/27 07:54:49;;;;;;;21.97;10.00;;;;;;;16.53;60.61;100274.37;1659620;85;21554;-57
2021/11/27 07:57:15;;;;;;;19.20;8.73;;;;;;;16.54;60.58;100278.71;1665754;85;21523;-57
2021/11/27 07:59:44;;;;;;;20.20;8.80;;;;;;;16.55;60.50;100276.48;1652472;85;21034;-59
2021/11/27 08:02:11;;;;;;;24.47;9.33;;;;;;;16.55;60.35;100270.74;1655130;85;21636;-61
2021/11/27 08:04:37;;;;;;;23.15;9.53;;;;;;;16.55;60.07;100271.23;1662153;85;21073;-60
2021/11/27 08:07:04;;;;;;;20.82;8.03;;;;;;;16.54;59.81;100269.52;1658269;85;21054;-59
2021/11/27 08:09:31;;;;;;;15.53;8.48;;;;;;;16.52;59.73;100278.80;1656811;85;21058;-60
2021/11/27 08:11:58;;;;;;;13.22;7.67;;;;;;;16.54;59.69;100279.56;1661064;85;21054;-58
2021/11/27 08:14:31;;;;;;;16.05;8.35;;;;;;;16.54;59.57;100272.14;1665326;85;21042;-57
2021/11/27 08:16:53;;;;;;;16.82;8.28;;;;;;;16.56;59.67;100287.36;1659423;85;21095;-61
2021/11/27 08:19:20;;;;;;;17.37;8.50;;;;;;;16.57;59.70;100286.44;1661931;85;21620;-61
2021/11/27 08:21:47;;;;;;;16.30;7.37;;;;;;;16.59;59.70;100283.27;1663205;85;21069;-61
2021/11/27 08:24:15;;;;;;;16.23;8.30;;;;;;;16.59;59.60;100287.20;1653044;85;21042;-61
2021/11/27 08:26:43;;;;;;;17.20;8.15;;;;;;;16.58;59.68;100287.66;1668289;86;21078;-59
2021/11/27 08:29:09;;;;;;;16.55;7.30;;;;;;;16.60;59.67;100290.20;1638762;86;21148;-57
2021/11/27 08:31:38;;;;;;;16.25;7.40;;;;;;;16.63;59.48;100296.62;1646666;83;21606;-61
2021/11/27 08:34:06;;;;;;;21.25;8.08;;;;;;;16.65;59.45;100306.58;1692334;84;21518;-61
2021/11/27 08:36:33;;;;;;;15.72;7.92;;;;;;;16.65;59.28;100305.27;1731031;80;21515;-59
2021/11/27 08:39:00;;;;;;;14.63;7.67;;;;;;;16.66;59.40;100292.50;1746077;80;20994;-60
2021/11/27 08:41:27;;;;;;;16.82;7.50;;;;;;;16.67;59.24;100287.15;1740623;80;21003;-60
2021/11/27 08:43:54;;;;;;;18.20;7.72;;;;;;;16.70;59.11;100282.20;1722367;80;20998;-57
2021/11/27 08:46:20;;;;;;;16.60;7.80;;;;;;;16.72;59.00;100274.63;1694806;84;21491;-60
2021/11/27 08:48:48;;;;;;;15.28;6.90;;;;;;;16.70;58.78;100275.64;1692571;82;21502;-59
2021/11/27 08:51:15;;;;;;;13.45;6.95;;;;;;;16.71;58.82;100272.09;1698718;84;20987;-60
2021/11/27 08:53:42;;;;;;;17.80;6.75;;;;;;;16.71;58.50;100262.89;1722054;83;20967;-60
2021/11/27 08:56:08;;;;;;;15.48;6.97;;;;;;;16.71;58.33;100264.21;1693267;84;21066;-59
2021/11/27 08:58:36;;;;;;;10.55;6.65;;;;;;;16.70;58.28;100259.88;1705172;84;21042;-59
2021/11/27 09:01:06;;;;;;;17.92;6.80;;;;;;;16.69;58.14;100256.39;1706707;84;21042;-58
2021/11/27 09:03:33;;;;;;;15.45;6.87;;;;;;;16.72;57.92;100261.95;1739850;81;20987;-60
2021/11/27 09:06:00;;;;;;;17.60;7.70;;;;;;;16.73;57.89;100264.48;1743061;81;21026;-56
2021/11/27 09:08:28;;;;;;;17.35;7.40;;;;;;;16.73;57.77;100261.03;1738883;81;21011;-59
2021/11/27 09:10:56;;;;;;;14.05;6.28;;;;;;;16.75;57.73;100261.34;1733319;81;21006;-57
2021/11/27 09:13:23;;;;;;;15.35;6.08;;;;;;;16.77;57.73;100252.05;1741533;81;21034;-59
2021/11/27 09:15:50;;;;;;;18.37;6.97;;;;;;;16.77;57.61;100263.42;1731585;81;21075;-56
2021/11/27 09:18:16;;;;;;;11.65;6.25;;;;;;;16.78;57.49;100268.19;1735240;81;21106;-57
2021/11/27 09:20:44;;;;;;;11.55;6.50;;;;;;;16.79;57.48;100268.13;1742276;81;21078;-55
2021/11/27 09:23:11;;;;;;;9.75;5.90;;;;;;;16.83;57.22;100268.79;1736703;81;21460;-57
2021/11/27 09:25:38;;;;;;;13.88;6.22;;;;;;;16.84;57.30;100265.22;1729436;81;21023;-55
2021/11/27 09:28:04;;;;;;;18.92;6.45;;;;;;;16.87;57.28;100276.43;1739567;81;20963;-56
2021/11/27 09:30:32;;;;;;;9.88;5.53;;;;;;;16.91;57.05;100266.59;1738597;81;21050;-60
2021/11/27 09:32:58;;;;;;;25.57;8.23;;;;;;;16.92;57.00;100264.33;1742933;81;21984;-58
2021/11/27 09:35:25;;;;;;;15.93;6.95;;;;;;;16.95;57.15;100269.42;1740758;81;21027;-57
2021/11/27 09:37:53;;;;;;;16.07;6.55;;;;;;;16.98;57.15;100275.84;1742813;81;20991;-59
2021/11/27 09:40:20;;;;;;;11.83;6.25;;;;;;;17.01;57.03;100266.45;1740142;81;21035;-65
2021/11/27 09:42:50;;;;;;;13.55;6.40;;;;;;;17.03;56.77;100268.53;1735090;81;21038;-64
2021/11/27 09:45:20;;;;;;;15.30;6.10;;;;;;;17.02;56.59;100270.30;1740065;81;20999;-61
2021/11/27 09:47:48;;;;;;;11.38;5.53;;;;;;;16.99;56.61;100269.17;1730527;82;20991;-61
2021/11/27 09:50:15;;;;;;;9.85;5.80;;;;;;;16.97;56.56;100268.88;1729225;82;21083;-56
2021/11/27 09:52:47;;;;;;;13.78;6.53;;;;;;;16.93;56.80;100269.98;1728412;82;21140;-59
2021/11/27 09:55:18;;;;;;;10.03;5.72;;;;;;;16.90;57.11;100259.62;1729814;82;21112;-60
2021/11/27 09:57:47;;;;;;;13.80;6.25;;;;;;;16.92;57.04;100263.01;1720687;82;21072;-60
2021/11/27 10:00:18;;;;;;;14.53;6.28;;;;;;;16.91;57.19;100263.96;1709081;83;21066;-60
2021/11/27 10:02:45;;;;;;;14.75;6.03;;;;;;;16.92;57.38;100278.78;1713323;83;21522;-56
2021/11/27 10:05:13;;;;;;;17.32;6.45;;;;;;;16.92;57.35;100280.09;1664510;85;21037;-62
2021/11/27 10:07:41;;;;;;;13.90;6.67;;;;;;;16.91;57.36;100277.09;1705864;82;21058;-56
2021/11/27 10:10:09;;;;;;;22.82;8.25;;;;;;;16.89;57.27;100271.08;1709332;83;21570;-60
2021/11/27 10:12:37;;;;;;;20.85;8.08;;;;;;;16.86;57.32;100265.98;1705302;83;21002;-60
2021/11/27 10:15:08;;;;;;;23.45;8.10;;;;;;;16.85;57.41;100270.41;1707629;83;21095;-58
2021/11/27 10:17:38;;;;;;;23.87;8.25;;;;;;;16.84;57.56;100256.02;1674281;85;21046;-59
2021/11/27 10:20:07;;;;;;;17.75;7.40;;;;;;;16.87;57.87;100266.38;1699543;83;21106;-61
2021/11/27 10:22:42;;;;;;;25.90;7.78;;;;;;;16.93;57.78;100264.72;1713343;83;20998;-58
2021/11/27 10:25:33;;;;;;;19.15;8.03;;;;;;;16.99;57.63;100265.70;1701516;83;21076;-57
2021/11/27 10:28:08;;;;;;;22.77;7.10;;;;;;;17.05;57.65;100262.27;1685485;83;21617;-56
2021/11/27 10:30:52;;;;;;;16.15;7.15;;;;;;;17.15;57.54;100261.27;1689817;83;20995;-62
2021/11/27 10:33:20;;;;;;;21.42;7.65;;;;;;;17.23;57.37;100256.91;1687704;83;21055;-58
2021/11/27 10:36:02;;;;;;;14.00;6.28;;;;;;;17.28;57.30;100255.70;1678044;83;21042;-60
2021/11/27 10:38:45;;;;;;;17.15;6.10;;;;;;;17.34;57.20;100257.98;1655356;84;21070;-58
2021/11/27 10:41:16;;;;;;;14.65;5.50;;;;;;;17.39;57.20;100252.47;1669377;84;21056;-60
2021/11/27 10:44:03;;;;;;;16.10;6.12;;;;;;;17.39;57.27;100261.22;1618334;87;21579;-60
2021/11/27 10:46:34;;;;;;;13.32;5.67;;;;;;;17.42;57.14;100247.88;1633036;86;21121;-55
2021/11/27 10:49:03;;;;;;;12.40;5.53;;;;;;;17.44;56.89;100251.72;1638004;86;21069;-57
2021/11/27 10:51:30;;;;;;;12.30;6.10;;;;;;;17.42;56.81;100247.88;1639261;86;21537;-59
2021/11/27 10:54:03;;;;;;;19.73;6.17;;;;;;;17.41;56.90;100250.59;1637305;86;21632;-59
2021/11/27 10:56:47;;;;;;;12.85;5.87;;;;;;;17.43;57.03;100262.73;1631873;85;21086;-63
2021/11/27 10:59:16;;;;;;;20.43;6.62;;;;;;;17.45;57.13;100267.89;1659628;85;21022;-56
2021/11/27 11:02:10;;;;;;;10.58;5.55;;;;;;;17.48;57.06;100258.03;1658213;85;21046;-58
2021/11/27 11:04:37;;;;;;;12.15;5.83;;;;;;;17.50;56.97;100256.20;1658833;85;21117;-59
2021/11/27 11:07:20;;;;;;;8.75;4.78;;;;;;;17.51;56.90;100248.70;1654353;85;21086;-59
2021/11/27 11:10:14;;;;;;;11.90;5.17;;;;;;;17.50;56.90;100240.41;1603490;88;21021;-57
2021/11/27 11:12:44;;;;;;;16.67;5.37;;;;;;;17.50;56.88;100240.41;1584303;89;21122;-57
2021/11/27 11:15:23;;;;;;;;;;;;;;;17.48;56.99;100250.14;1584343;89;21058;-59
2021/11/27 11:18:07;;;;;;;11.18;6.30;;;;;;;17.48;57.27;100254.09;1576143;90;20148;-64
2021/11/27 11:20:35;;;;;;;13.43;5.55;;;;;;;17.49;57.39;100259.78;1576896;89;21086;-59
2021/11/27 11:23:27;;;;;;;17.10;6.25;;;;;;;17.50;57.57;100264.09;1573484;89;21143;-60
2021/11/27 11:26:04;;;;;;;19.42;6.62;;;;;;;17.51;57.58;100256.59;1565018;91;21531;-59
2021/11/27 11:28:36;;;;;;;11.35;5.45;;;;;;;17.54;57.51;100259.48;1533963;93;21554;-56
2021/11/27 11:31:11;;;;;;;20.82;6.75;;;;;;;17.51;57.45;100252.64;1481583;95;21173;-59
2021/11/27 11:33:41;;;;;;;13.53;6.22;;;;;;;17.48;57.50;100258.03;1472292;95;21226;-58
2021/11/27 11:36:11;;;;;;;16.77;6.47;;;;;;;17.45;57.80;100257.37;1476431;95;21143;-59
2021/11/27 11:38:40;;;;;;;23.25;6.80;;;;;;;17.42;58.05;100265.42;1480384;96;21085;-60
2021/11/27 11:41:09;;;;;;;12.28;6.85;;;;;;;17.40;58.14;100266.84;1481573;95;21117;-58
2021/11/27 11:43:36;;;;;;;16.65;5.75;;;;;;;17.39;58.23;100256.41;1480863;95;21111;-60
2021/11/27 11:46:04;;;;;;;17.95;6.62;;;;;;;17.37;58.31;100259.11;1494968;94;21142;-58
2021/11/27 11:48:31;;;;;;;13.48;6.28;;;;;;;17.34;58.39;100261.93;1505181;94;21071;-60
2021/11/27 11:51:18;;;;;;;14.65;6.83;;;;;;;17.31;58.54;100260.77;1505419;94;21580;-60